sensor_id;sensor_type;location;lat;lon;timestamp;pressure;altitude;pressure_sealevel;temperature;humidity
61113;BME280;47184;57.998;56.184;2023-03-03T00:01:22;98514.63;;;-15.77;64.78
61113;BME280;47184;57.998;56.184;2023-03-03T00:03:52;98528.84;;;-15.71;63.68
61113;BME280;47184;57.998;56.184;2023-03-03T00:06:19;98523.88;;;-15.76;63.86
61113;BME280;47184;57.998;56.184;2023-03-03T00:08:45;98523.97;;;-15.81;63.77
61113;BME280;47184;57.998;56.184;2023-03-03T00:11:12;98530.59;;;-15.75;64.03
61113;BME280;47184;57.998;56.184;2023-03-03T00:13:48;98534.84;;;-15.76;64.02
61113;BME280;47184;57.998;56.184;2023-03-03T00:18:46;98539.16;;;-15.81;63.93
61113;BME280;47184;57.998;56.184;2023-03-03T00:21:30;98551.06;;;-15.86;64.61
61113;BME280;47184;57.998;56.184;2023-03-03T00:24:19;98552.81;;;-15.89;64.50
61113;BME280;47184;57.998;56.184;2023-03-03T00:31:52;98558.88;;;-15.96;63.87
61113;BME280;47184;57.998;56.184;2023-03-03T00:34:25;98562.31;;;-16.01;63.63
61113;BME280;47184;57.998;56.184;2023-03-03T00:36:52;98560.88;;;-16.11;64.12
61113;BME280;47184;57.998;56.184;2023-03-03T00:39:36;98560.06;;;-16.13;63.33
61113;BME280;47184;57.998;56.184;2023-03-03T00:42:13;98567.84;;;-16.22;63.62
61113;BME280;47184;57.998;56.184;2023-03-03T00:44:43;98572.19;;;-16.29;64.08
61113;BME280;47184;57.998;56.184;2023-03-03T00:47:30;98569.72;;;-16.33;63.14
61113;BME280;47184;57.998;56.184;2023-03-03T00:52:35;98564.97;;;-16.47;63.31
61113;BME280;47184;57.998;56.184;2023-03-03T00:55:01;98582.41;;;-16.35;63.95
61113;BME280;47184;57.998;56.184;2023-03-03T00:57:29;98590.03;;;-16.36;63.78
61113;BME280;47184;57.998;56.184;2023-03-03T00:59:56;98587.50;;;-16.36;63.59
61113;BME280;47184;57.998;56.184;2023-03-03T01:02:22;98579.28;;;-16.47;63.75
61113;BME280;47184;57.998;56.184;2023-03-03T01:04:50;98593.56;;;-16.45;64.31
61113;BME280;47184;57.998;56.184;2023-03-03T01:07:17;98593.63;;;-16.48;63.29
61113;BME280;47184;57.998;56.184;2023-03-03T01:09:44;98596.25;;;-16.54;64.17
61113;BME280;47184;57.998;56.184;2023-03-03T01:12:10;98600.44;;;-16.53;64.24
61113;BME280;47184;57.998;56.184;2023-03-03T01:14:37;98602.16;;;-16.55;64.20
61113;BME280;47184;57.998;56.184;2023-03-03T01:17:03;98588.84;;;-16.63;63.96
61113;BME280;47184;57.998;56.184;2023-03-03T01:19:30;98595.38;;;-16.52;63.76
61113;BME280;47184;57.998;56.184;2023-03-03T01:21:56;98577.13;;;-16.67;63.33
61113;BME280;47184;57.998;56.184;2023-03-03T01:24:23;98602.91;;;-16.50;63.79
61113;BME280;47184;57.998;56.184;2023-03-03T01:26:49;98604.59;;;-16.51;63.79
61113;BME280;47184;57.998;56.184;2023-03-03T01:29:15;98616.44;;;-16.53;64.46
61113;BME280;47184;57.998;56.184;2023-03-03T01:31:41;98607.25;;;-16.57;63.88
61113;BME280;47184;57.998;56.184;2023-03-03T01:34:07;98608.16;;;-16.61;64.48
61113;BME280;47184;57.998;56.184;2023-03-03T01:36:33;98604.13;;;-16.71;64.11
61113;BME280;47184;57.998;56.184;2023-03-03T01:39:00;98623.66;;;-16.79;63.24
61113;BME280;47184;57.998;56.184;2023-03-03T01:41:28;98616.25;;;-16.88;63.25
61113;BME280;47184;57.998;56.184;2023-03-03T01:43:55;98600.69;;;-17.15;63.75
61113;BME280;47184;57.998;56.184;2023-03-03T01:46:50;98619.22;;;-17.14;63.70
61113;BME280;47184;57.998;56.184;2023-03-03T01:49:27;98618.34;;;-17.15;63.85
61113;BME280;47184;57.998;56.184;2023-03-03T01:51:57;98628.41;;;-17.12;64.72
61113;BME280;47184;57.998;56.184;2023-03-03T01:54:39;98631.88;;;-17.19;64.88
61113;BME280;47184;57.998;56.184;2023-03-03T01:57:12;98625.34;;;-17.31;64.52
61113;BME280;47184;57.998;56.184;2023-03-03T01:59:43;98636.34;;;-17.36;64.03
61113;BME280;47184;57.998;56.184;2023-03-03T02:02:10;98635.63;;;-17.44;64.35
61113;BME280;47184;57.998;56.184;2023-03-03T02:04:36;98641.50;;;-17.44;64.59
61113;BME280;47184;57.998;56.184;2023-03-03T02:07:06;98641.50;;;-17.44;64.42
61113;BME280;47184;57.998;56.184;2023-03-03T02:09:58;98643.22;;;-17.47;63.33
61113;BME280;47184;57.998;56.184;2023-03-03T02:12:33;98645.81;;;-17.52;63.99
61113;BME280;47184;57.998;56.184;2023-03-03T02:15:33;98638.28;;;-17.54;64.05
61113;BME280;47184;57.998;56.184;2023-03-03T02:18:11;98639.97;;;-17.56;64.09
61113;BME280;47184;57.998;56.184;2023-03-03T02:20:53;98639.13;;;-17.56;64.53
61113;BME280;47184;57.998;56.184;2023-03-03T02:28:30;98629.22;;;-17.68;64.53
61113;BME280;47184;57.998;56.184;2023-03-03T02:31:02;98650.06;;;-17.56;64.30
61113;BME280;47184;57.998;56.184;2023-03-03T02:33:30;98643.34;;;-17.57;63.63
61113;BME280;47184;57.998;56.184;2023-03-03T02:35:56;98612.59;;;-17.80;63.56
61113;BME280;47184;57.998;56.184;2023-03-03T02:44:29;98648.31;;;-17.51;63.74
61113;BME280;47184;57.998;56.184;2023-03-03T02:46:49;98618.34;;;-17.72;64.08
61113;BME280;47184;57.998;56.184;2023-03-03T02:49:22;98660.88;;;-17.46;63.72
61113;BME280;47184;57.998;56.184;2023-03-03T02:51:49;98629.28;;;-17.71;64.25
61113;BME280;47184;57.998;56.184;2023-03-03T02:54:17;98666.78;;;-17.48;64.50
61113;BME280;47184;57.998;56.184;2023-03-03T02:56:44;98650.94;;;-17.60;64.23
61113;BME280;47184;57.998;56.184;2023-03-03T02:59:11;98660.94;;;-17.52;64.71
61113;BME280;47184;57.998;56.184;2023-03-03T03:01:43;98661.75;;;-17.52;63.95
61113;BME280;47184;57.998;56.184;2023-03-03T03:04:15;98660.13;;;-17.56;64.04
61113;BME280;47184;57.998;56.184;2023-03-03T03:06:44;98666.94;;;-17.59;63.98
61113;BME280;47184;57.998;56.184;2023-03-03T03:09:13;98661.03;;;-17.58;64.27
61113;BME280;47184;57.998;56.184;2023-03-03T03:11:40;98665.28;;;-17.62;64.43
61113;BME280;47184;57.998;56.184;2023-03-03T03:14:10;98661.00;;;-17.57;64.23
61113;BME280;47184;57.998;56.184;2023-03-03T03:16:38;98650.09;;;-17.57;64.15
61113;BME280;47184;57.998;56.184;2023-03-03T03:19:05;98669.31;;;-17.50;64.28
61113;BME280;47184;57.998;56.184;2023-03-03T03:21:32;98665.13;;;-17.50;64.55
61113;BME280;47184;57.998;56.184;2023-03-03T03:23:59;98658.41;;;-17.51;63.98
61113;BME280;47184;57.998;56.184;2023-03-03T03:26:26;98643.47;;;-17.64;63.62
61113;BME280;47184;57.998;56.184;2023-03-03T03:28:52;98665.81;;;-17.40;64.54
61113;BME280;47184;57.998;56.184;2023-03-03T03:31:19;98637.50;;;-17.59;63.81
61113;BME280;47184;57.998;56.184;2023-03-03T03:33:46;98678.41;;;-17.38;64.41
61113;BME280;47184;57.998;56.184;2023-03-03T03:36:16;98656.00;;;-17.58;63.70
61113;BME280;47184;57.998;56.184;2023-03-03T03:38:43;98662.72;;;-17.59;63.93
61113;BME280;47184;57.998;56.184;2023-03-03T03:41:11;98642.72;;;-17.71;64.15
61113;BME280;47184;57.998;56.184;2023-03-03T03:43:39;98691.09;;;-17.43;64.21
61113;BME280;47184;57.998;56.184;2023-03-03T03:46:06;98688.56;;;-17.43;63.93
61113;BME280;47184;57.998;56.184;2023-03-03T03:48:33;98685.19;;;-17.42;64.13
61113;BME280;47184;57.998;56.184;2023-03-03T03:51:00;98687.69;;;-17.39;63.50
61113;BME280;47184;57.998;56.184;2023-03-03T03:53:27;98693.41;;;-17.29;63.64
61113;BME280;47184;57.998;56.184;2023-03-03T03:55:53;98685.91;;;-17.35;63.93
61113;BME280;47184;57.998;56.184;2023-03-03T03:58:20;98695.91;;;-17.26;63.66
61113;BME280;47184;57.998;56.184;2023-03-03T04:01:00;98692.56;;;-17.27;63.47
61113;BME280;47184;57.998;56.184;2023-03-03T04:03:26;98670.84;;;-17.38;64.74
61113;BME280;47184;57.998;56.184;2023-03-03T04:05:53;98698.31;;;-17.20;64.23
61113;BME280;47184;57.998;56.184;2023-03-03T04:08:20;98700.78;;;-17.14;63.76
61113;BME280;47184;57.998;56.184;2023-03-03T04:10:47;98694.25;;;-17.29;64.64
61113;BME280;47184;57.998;56.184;2023-03-03T04:13:14;98692.56;;;-17.27;64.54
61113;BME280;47184;57.998;56.184;2023-03-03T04:15:40;98710.00;;;-17.13;64.28
61113;BME280;47184;57.998;56.184;2023-03-03T04:18:06;98711.53;;;-17.03;63.79
61113;BME280;47184;57.998;56.184;2023-03-03T04:20:33;98710.63;;;-16.98;63.87
61113;BME280;47184;57.998;56.184;2023-03-03T04:23:00;98713.09;;;-16.95;64.44
61113;BME280;47184;57.998;56.184;2023-03-03T04:25:29;98717.25;;;-16.90;64.12
61113;BME280;47184;57.998;56.184;2023-03-03T04:27:55;98714.69;;;-16.88;64.57
61113;BME280;47184;57.998;56.184;2023-03-03T04:30:22;98724.72;;;-16.84;63.72
61113;BME280;47184;57.998;56.184;2023-03-03T04:32:52;98722.19;;;-16.84;63.89
61113;BME280;47184;57.998;56.184;2023-03-03T04:35:21;98729.72;;;-16.82;64.57
61113;BME280;47184;57.998;56.184;2023-03-03T04:37:47;98725.38;;;-16.72;63.48
61113;BME280;47184;57.998;56.184;2023-03-03T04:40:14;98727.69;;;-16.60;63.69
61113;BME280;47184;57.998;56.184;2023-03-03T04:42:42;98708.19;;;-16.54;63.42
61113;BME280;47184;57.998;56.184;2023-03-03T04:45:09;98727.16;;;-16.28;63.72
61113;BME280;47184;57.998;56.184;2023-03-03T04:47:36;98727.09;;;-16.27;62.82
61113;BME280;47184;57.998;56.184;2023-03-03T04:50:04;98752.00;;;-16.04;63.52
61113;BME280;47184;57.998;56.184;2023-03-03T04:52:32;98709.06;;;-16.07;63.63
61113;BME280;47184;57.998;56.184;2023-03-03T04:54:58;98742.22;;;-15.77;63.41
61113;BME280;47184;57.998;56.184;2023-03-03T04:57:25;98743.72;;;-15.68;63.15
61113;BME280;47184;57.998;56.184;2023-03-03T04:59:52;98736.13;;;-15.67;63.79
61113;BME280;47184;57.998;56.184;2023-03-03T05:02:19;98746.84;;;-15.57;62.97
61113;BME280;47184;57.998;56.184;2023-03-03T05:04:46;98748.28;;;-15.44;63.32
61113;BME280;47184;57.998;56.184;2023-03-03T05:07:12;98728.78;;;-15.39;63.60
61113;BME280;47184;57.998;56.184;2023-03-03T05:09:39;98746.25;;;-15.27;63.26
61113;BME280;47184;57.998;56.184;2023-03-03T05:12:05;98748.47;;;-15.13;63.10
61113;BME280;47184;57.998;56.184;2023-03-03T05:14:31;98757.47;;;-15.00;62.43
61113;BME280;47184;57.998;56.184;2023-03-03T05:16:57;98756.50;;;-14.94;62.52
61113;BME280;47184;57.998;56.184;2023-03-03T05:19:23;98769.31;;;-14.63;62.58
61113;BME280;47184;57.998;56.184;2023-03-03T05:21:50;98768.47;;;-14.29;62.10
61113;BME280;47184;57.998;56.184;2023-03-03T05:24:16;98764.78;;;-14.16;61.84
61113;BME280;47184;57.998;56.184;2023-03-03T05:26:42;98750.41;;;-14.15;61.60
61113;BME280;47184;57.998;56.184;2023-03-03T05:29:08;98763.72;;;-13.75;61.20
61113;BME280;47184;57.998;56.184;2023-03-03T05:31:35;98768.88;;;-13.46;59.86
61113;BME280;47184;57.998;56.184;2023-03-03T05:34:01;98773.03;;;-13.14;59.98
61113;BME280;47184;57.998;56.184;2023-03-03T05:36:27;98772.03;;;-12.81;59.42
61113;BME280;47184;57.998;56.184;2023-03-03T05:38:53;98776.97;;;-12.76;59.11
61113;BME280;47184;57.998;56.184;2023-03-03T05:41:20;98748.31;;;-12.53;58.43
61113;BME280;47184;57.998;56.184;2023-03-03T05:43:46;98765.66;;;-11.64;57.50
61113;BME280;47184;57.998;56.184;2023-03-03T05:46:15;98755.78;;;-10.80;56.28
61113;BME280;47184;57.998;56.184;2023-03-03T05:48:42;98762.41;;;-10.11;55.38
61113;BME280;47184;57.998;56.184;2023-03-03T05:51:08;98763.97;;;-9.87;54.32
61113;BME280;47184;57.998;56.184;2023-03-03T05:53:34;98775.59;;;-9.40;54.14
61113;BME280;47184;57.998;56.184;2023-03-03T05:56:00;98783.91;;;-9.56;53.00
61113;BME280;47184;57.998;56.184;2023-03-03T05:58:26;98783.72;;;-9.31;53.28
61113;BME280;47184;57.998;56.184;2023-03-03T06:00:53;98782.03;;;-8.74;52.76
61113;BME280;47184;57.998;56.184;2023-03-03T06:03:19;98769.41;;;-8.78;51.20
61113;BME280;47184;57.998;56.184;2023-03-03T06:05:45;98772.78;;;-8.59;50.46
61113;BME280;47184;57.998;56.184;2023-03-03T06:08:12;98771.94;;;-8.40;49.87
61113;BME280;47184;57.998;56.184;2023-03-03T06:10:38;98776.09;;;-8.20;49.76
61113;BME280;47184;57.998;56.184;2023-03-03T06:13:06;98762.28;;;-8.18;48.60
61113;BME280;47184;57.998;56.184;2023-03-03T06:15:32;98779.19;;;-7.79;48.48
61113;BME280;47184;57.998;56.184;2023-03-03T06:17:58;98775.63;;;-7.77;48.46
61113;BME280;47184;57.998;56.184;2023-03-03T06:20:24;98767.94;;;-7.59;47.51
61113;BME280;47184;57.998;56.184;2023-03-03T06:22:50;98772.59;;;-7.50;47.74
61113;BME280;47184;57.998;56.184;2023-03-03T06:25:16;98782.63;;;-6.96;47.41
61113;BME280;47184;57.998;56.184;2023-03-03T06:27:42;98783.53;;;-6.34;46.93
61113;BME280;47184;57.998;56.184;2023-03-03T06:30:09;98757.84;;;-5.60;46.25
61113;BME280;47184;57.998;56.184;2023-03-03T06:32:35;98780.19;;;-5.03;45.27
61113;BME280;47184;57.998;56.184;2023-03-03T06:35:01;98783.66;;;-4.76;44.67
61113;BME280;47184;57.998;56.184;2023-03-03T06:37:29;98794.59;;;-5.58;43.73
61113;BME280;47184;57.998;56.184;2023-03-03T06:39:55;98793.50;;;-6.44;44.46
61113;BME280;47184;57.998;56.184;2023-03-03T06:42:21;98788.03;;;-5.92;44.74
61113;BME280;47184;57.998;56.184;2023-03-03T06:44:49;98793.19;;;-4.49;44.56
61113;BME280;47184;57.998;56.184;2023-03-03T06:47:16;98757.75;;;-3.66;43.81
61113;BME280;47184;57.998;56.184;2023-03-03T06:49:42;98786.38;;;-2.68;41.83
61113;BME280;47184;57.998;56.184;2023-03-03T06:52:22;98787.94;;;-2.42;41.49
61113;BME280;47184;57.998;56.184;2023-03-03T06:54:48;98781.63;;;-2.14;39.92
61113;BME280;47184;57.998;56.184;2023-03-03T06:57:22;98788.97;;;-2.32;39.91
61113;BME280;47184;57.998;56.184;2023-03-03T06:59:53;98786.09;;;-1.45;39.12
61113;BME280;47184;57.998;56.184;2023-03-03T07:02:20;98778.97;;;-0.97;39.05
61113;BME280;47184;57.998;56.184;2023-03-03T07:04:47;98787.22;;;-0.92;38.45
61113;BME280;47184;57.998;56.184;2023-03-03T07:07:20;98789.81;;;-1.14;37.70
61113;BME280;47184;57.998;56.184;2023-03-03T07:09:48;98794.84;;;-1.13;37.23
61113;BME280;47184;57.998;56.184;2023-03-03T07:12:20;98800.50;;;-1.30;37.44
61113;BME280;47184;57.998;56.184;2023-03-03T07:15:20;98795.91;;;-1.15;37.18
61113;BME280;47184;57.998;56.184;2023-03-03T07:17:51;98797.06;;;-1.31;36.34
61113;BME280;47184;57.998;56.184;2023-03-03T07:22:45;98805.69;;;-1.08;35.97
61113;BME280;47184;57.998;56.184;2023-03-03T07:25:28;98796.97;;;-0.84;35.28
61113;BME280;47184;57.998;56.184;2023-03-03T07:27:59;98788.03;;;-0.69;35.12
61113;BME280;47184;57.998;56.184;2023-03-03T07:30:32;98784.72;;;-0.82;34.53
61113;BME280;47184;57.998;56.184;2023-03-03T07:32:59;98806.09;;;-0.24;35.59
61113;BME280;47184;57.998;56.184;2023-03-03T07:35:40;98809.59;;;0.71;35.26
61113;BME280;47184;57.998;56.184;2023-03-03T07:40:58;98796.47;;;1.34;34.11
61113;BME280;47184;57.998;56.184;2023-03-03T07:43:29;98805.66;;;2.08;33.70
61113;BME280;47184;57.998;56.184;2023-03-03T07:46:46;98794.78;;;1.83;32.54
61113;BME280;47184;57.998;56.184;2023-03-03T07:48:48;98789.31;;;1.77;32.76
61113;BME280;47184;57.998;56.184;2023-03-03T07:51:28;98799.50;;;1.39;32.64
61113;BME280;47184;57.998;56.184;2023-03-03T07:57:11;98801.28;;;1.08;32.59
61113;BME280;47184;57.998;56.184;2023-03-03T07:59:54;98791.00;;;0.76;33.76
61113;BME280;47184;57.998;56.184;2023-03-03T08:07:57;98764.50;;;2.69;33.26
61113;BME280;47184;57.998;56.184;2023-03-03T08:10:53;98788.41;;;3.02;30.90
61113;BME280;47184;57.998;56.184;2023-03-03T08:13:36;98777.53;;;2.69;30.72
61113;BME280;47184;57.998;56.184;2023-03-03T08:16:27;98766.91;;;3.18;30.80
61113;BME280;47184;57.998;56.184;2023-03-03T08:18:55;98771.63;;;4.05;30.22
61113;BME280;47184;57.998;56.184;2023-03-03T08:21:24;98756.16;;;4.30;30.20
61113;BME280;47184;57.998;56.184;2023-03-03T08:23:51;98781.13;;;4.94;29.91
61113;BME280;47184;57.998;56.184;2023-03-03T08:26:23;98766.97;;;4.61;29.46
61113;BME280;47184;57.998;56.184;2023-03-03T08:28:50;98765.47;;;5.02;30.11
61113;BME280;47184;57.998;56.184;2023-03-03T08:31:16;98769.94;;;4.58;29.31
61113;BME280;47184;57.998;56.184;2023-03-03T08:33:43;98774.34;;;4.83;28.89
61113;BME280;47184;57.998;56.184;2023-03-03T08:36:13;98763.84;;;5.09;28.85
61113;BME280;47184;57.998;56.184;2023-03-03T08:38:39;98754.97;;;5.95;28.98
61113;BME280;47184;57.998;56.184;2023-03-03T08:41:06;98752.88;;;6.15;27.20
61113;BME280;47184;57.998;56.184;2023-03-03T08:43:32;98744.69;;;6.02;27.09
61113;BME280;47184;57.998;56.184;2023-03-03T08:46:00;98761.00;;;4.94;28.24
61113;BME280;47184;57.998;56.184;2023-03-03T08:48:28;98755.03;;;3.79;29.19
61113;BME280;47184;57.998;56.184;2023-03-03T08:50:54;98774.22;;;4.05;29.30
61113;BME280;47184;57.998;56.184;2023-03-03T08:53:21;98762.69;;;3.62;29.63
61113;BME280;47184;57.998;56.184;2023-03-03T08:55:48;98761.38;;;3.31;29.36
61113;BME280;47184;57.998;56.184;2023-03-03T08:58:16;98755.09;;;2.86;29.85
61113;BME280;47184;57.998;56.184;2023-03-03T09:00:43;98764.53;;;3.97;30.51
61113;BME280;47184;57.998;56.184;2023-03-03T09:03:10;98760.13;;;5.70;29.70
61113;BME280;47184;57.998;56.184;2023-03-03T09:05:37;98758.31;;;7.10;28.87
61113;BME280;47184;57.998;56.184;2023-03-03T09:08:05;98749.34;;;7.98;27.88
61113;BME280;47184;57.998;56.184;2023-03-03T09:10:32;98742.91;;;8.84;28.42
61113;BME280;47184;57.998;56.184;2023-03-03T09:13:03;98748.59;;;9.47;26.73
61113;BME280;47184;57.998;56.184;2023-03-03T09:15:32;98749.03;;;9.50;25.43
61113;BME280;47184;57.998;56.184;2023-03-03T09:18:09;98743.16;;;9.33;25.26
61113;BME280;47184;57.998;56.184;2023-03-03T09:20:42;98752.97;;;9.25;24.37
61113;BME280;47184;57.998;56.184;2023-03-03T09:23:28;98741.56;;;9.03;24.94
61113;BME280;47184;57.998;56.184;2023-03-03T09:25:57;98741.91;;;9.14;23.90
61113;BME280;47184;57.998;56.184;2023-03-03T09:28:29;98742.44;;;9.25;23.47
61113;BME280;47184;57.998;56.184;2023-03-03T09:30:57;98734.16;;;9.42;25.38
61113;BME280;47184;57.998;56.184;2023-03-03T09:33:30;98746.81;;;9.03;24.84
61113;BME280;47184;57.998;56.184;2023-03-03T09:36:27;98745.25;;;9.38;24.39
61113;BME280;47184;57.998;56.184;2023-03-03T09:38:57;98746.25;;;9.22;23.79
61113;BME280;47184;57.998;56.184;2023-03-03T09:45:17;98752.72;;;6.49;26.94
61113;BME280;47184;57.998;56.184;2023-03-03T09:50:40;98736.28;;;4.37;27.41
61113;BME280;47184;57.998;56.184;2023-03-03T09:56:00;98723.03;;;6.40;25.79
61113;BME280;47184;57.998;56.184;2023-03-03T09:58:49;98707.28;;;7.12;24.86
61113;BME280;47184;57.998;56.184;2023-03-03T10:01:31;98738.00;;;7.74;23.96
61113;BME280;47184;57.998;56.184;2023-03-03T10:12:19;98738.91;;;9.32;23.80
61113;BME280;47184;57.998;56.184;2023-03-03T10:17:36;98743.16;;;9.84;23.42
61113;BME280;47184;57.998;56.184;2023-03-03T10:22:48;98745.63;;;9.05;23.29
61113;BME280;47184;57.998;56.184;2023-03-03T10:25:37;98732.06;;;8.64;22.50
61113;BME280;47184;57.998;56.184;2023-03-03T10:28:30;98742.31;;;8.59;22.51
61113;BME280;47184;57.998;56.184;2023-03-03T10:34:02;98739.19;;;9.08;21.88
61113;BME280;47184;57.998;56.184;2023-03-03T10:36:52;98741.63;;;8.80;22.41
61113;BME280;47184;57.998;56.184;2023-03-03T10:44:52;98757.47;;;8.34;21.99
61113;BME280;47184;57.998;56.184;2023-03-03T10:50:40;98760.50;;;6.98;22.75
61113;BME280;47184;57.998;56.184;2023-03-03T10:59:09;98750.44;;;6.13;23.69
61113;BME280;47184;57.998;56.184;2023-03-03T11:01:55;98745.81;;;6.07;22.99
61113;BME280;47184;57.998;56.184;2023-03-03T11:07:43;98743.88;;;6.42;24.35
61113;BME280;47184;57.998;56.184;2023-03-03T11:13:17;98740.56;;;6.64;23.47
61113;BME280;47184;57.998;56.184;2023-03-03T11:27:32;98731.03;;;7.58;24.14
61113;BME280;47184;57.998;56.184;2023-03-03T11:30:52;98749.13;;;8.07;24.17
61113;BME280;47184;57.998;56.184;2023-03-03T11:39:10;98739.16;;;5.54;24.57
61113;BME280;47184;57.998;56.184;2023-03-03T11:44:42;98744.88;;;4.81;25.12
61113;BME280;47184;57.998;56.184;2023-03-03T11:47:33;98734.78;;;4.34;25.61
61113;BME280;47184;57.998;56.184;2023-03-03T11:55:54;98742.56;;;3.00;26.88
61113;BME280;47184;57.998;56.184;2023-03-03T11:58:39;98761.25;;;2.29;27.45
61113;BME280;47184;57.998;56.184;2023-03-03T12:01:32;98758.78;;;1.98;27.94
61113;BME280;47184;57.998;56.184;2023-03-03T12:06:57;98756.53;;;1.05;29.49
61113;BME280;47184;57.998;56.184;2023-03-03T12:12:18;98731.59;;;0.20;30.34
61113;BME280;47184;57.998;56.184;2023-03-03T12:20:15;98752.09;;;-0.85;31.72
61113;BME280;47184;57.998;56.184;2023-03-03T12:25:42;98751.19;;;-1.06;32.92
61113;BME280;47184;57.998;56.184;2023-03-03T12:28:18;98750.56;;;-1.55;33.72
61113;BME280;47184;57.998;56.184;2023-03-03T12:42:01;98747.16;;;-1.55;34.59
61113;BME280;47184;57.998;56.184;2023-03-03T12:44:43;98751.16;;;-1.29;34.51
61113;BME280;47184;57.998;56.184;2023-03-03T12:47:15;98750.22;;;-1.16;34.85
61113;BME280;47184;57.998;56.184;2023-03-03T12:49:54;98752.75;;;-1.61;35.32
61113;BME280;47184;57.998;56.184;2023-03-03T13:03:52;98747.38;;;-1.93;35.53
61113;BME280;47184;57.998;56.184;2023-03-03T13:17:29;98755.88;;;-4.70;38.75
61113;BME280;47184;57.998;56.184;2023-03-03T13:20:43;98736.91;;;-4.96;38.97
61113;BME280;47184;57.998;56.184;2023-03-03T13:22:56;98748.28;;;-5.15;39.16
61113;BME280;47184;57.998;56.184;2023-03-03T13:25:44;98749.97;;;-5.42;39.75
61113;BME280;47184;57.998;56.184;2023-03-03T13:31:18;98749.19;;;-5.73;40.75
61113;BME280;47184;57.998;56.184;2023-03-03T13:33:53;98748.03;;;-6.12;41.85
61113;BME280;47184;57.998;56.184;2023-03-03T13:36:24;98750.88;;;-6.16;42.24
61113;BME280;47184;57.998;56.184;2023-03-03T13:38:54;98747.81;;;-6.23;41.75
61113;BME280;47184;57.998;56.184;2023-03-03T13:41:44;98757.78;;;-6.33;41.11
61113;BME280;47184;57.998;56.184;2023-03-03T13:44:37;98758.63;;;-6.48;41.84
61113;BME280;47184;57.998;56.184;2023-03-03T13:55:31;98777.47;;;-7.12;42.69
61113;BME280;47184;57.998;56.184;2023-03-03T13:58:24;98771.25;;;-7.24;43.62
61113;BME280;47184;57.998;56.184;2023-03-03T14:01:04;98758.13;;;-7.35;43.60
61113;BME280;47184;57.998;56.184;2023-03-03T14:06:29;98770.31;;;-7.39;44.03
61113;BME280;47184;57.998;56.184;2023-03-03T14:17:07;98785.16;;;-7.45;46.26
61113;BME280;47184;57.998;56.184;2023-03-03T14:19:46;98766.69;;;-7.52;45.82
61113;BME280;47184;57.998;56.184;2023-03-03T14:23:13;98783.88;;;-7.37;46.94
61113;BME280;47184;57.998;56.184;2023-03-03T14:26:06;98787.41;;;-7.39;46.76
61113;BME280;47184;57.998;56.184;2023-03-03T14:31:25;98791.22;;;-7.46;48.29
61113;BME280;47184;57.998;56.184;2023-03-03T14:34:01;98789.91;;;-7.38;47.53
61113;BME280;47184;57.998;56.184;2023-03-03T14:36:31;98774.31;;;-7.51;48.40
61113;BME280;47184;57.998;56.184;2023-03-03T14:38:58;98768.00;;;-7.61;48.84
61113;BME280;47184;57.998;56.184;2023-03-03T14:41:38;98783.66;;;-7.50;48.62
61113;BME280;47184;57.998;56.184;2023-03-03T14:44:25;98785.13;;;-7.61;49.16
61113;BME280;47184;57.998;56.184;2023-03-03T14:49:36;98799.19;;;-7.53;49.91
61113;BME280;47184;57.998;56.184;2023-03-03T14:54:40;98793.81;;;-7.31;49.28
61113;BME280;47184;57.998;56.184;2023-03-03T14:57:11;98806.31;;;-7.25;49.71
61113;BME280;47184;57.998;56.184;2023-03-03T14:59:38;98792.75;;;-7.27;49.63
61113;BME280;47184;57.998;56.184;2023-03-03T15:04:41;98807.16;;;-7.24;49.76
61113;BME280;47184;57.998;56.184;2023-03-03T15:07:30;98783.00;;;-7.53;50.37
61113;BME280;47184;57.998;56.184;2023-03-03T15:09:58;98794.00;;;-7.51;51.61
61113;BME280;47184;57.998;56.184;2023-03-03T15:12:36;98791.75;;;-7.57;51.11
61113;BME280;47184;57.998;56.184;2023-03-03T15:17:40;98793.69;;;-7.45;50.44
61113;BME280;47184;57.998;56.184;2023-03-03T15:22:50;98769.63;;;-7.76;51.94
61113;BME280;47184;57.998;56.184;2023-03-03T15:28:21;98796.88;;;-7.75;51.58
61113;BME280;47184;57.998;56.184;2023-03-03T15:31:26;98788.59;;;-7.97;52.25
61113;BME280;47184;57.998;56.184;2023-03-03T15:37:06;98799.28;;;-7.89;52.64
61113;BME280;47184;57.998;56.184;2023-03-03T15:51:05;98794.53;;;-7.97;53.12
61113;BME280;47184;57.998;56.184;2023-03-03T16:02:24;98799.13;;;-7.86;54.06
61113;BME280;47184;57.998;56.184;2023-03-03T16:05:02;98792.88;;;-7.80;53.21
61113;BME280;47184;57.998;56.184;2023-03-03T16:10:14;98789.50;;;-7.81;53.31
61113;BME280;47184;57.998;56.184;2023-03-03T16:16:11;98791.97;;;-7.97;53.36
61113;BME280;47184;57.998;56.184;2023-03-03T16:32:39;98794.31;;;-7.75;53.29
61113;BME280;47184;57.998;56.184;2023-03-03T16:38:44;98778.41;;;-7.81;53.71
61113;BME280;47184;57.998;56.184;2023-03-03T16:41:22;98806.53;;;-7.62;53.03
61113;BME280;47184;57.998;56.184;2023-03-03T16:44:22;98805.53;;;-7.60;52.51
61113;BME280;47184;57.998;56.184;2023-03-03T16:53:17;98801.81;;;-7.37;52.72
61113;BME280;47184;57.998;56.184;2023-03-03T16:55:52;98805.72;;;-7.30;52.10
61113;BME280;47184;57.998;56.184;2023-03-03T17:01:15;98792.31;;;-7.35;52.40
61113;BME280;47184;57.998;56.184;2023-03-03T17:06:35;98765.84;;;-7.35;52.20
61113;BME280;47184;57.998;56.184;2023-03-03T17:12:12;98799.41;;;-7.07;51.80
61113;BME280;47184;57.998;56.184;2023-03-03T17:15:23;98807.19;;;-7.08;51.75
61113;BME280;47184;57.998;56.184;2023-03-03T17:18:13;98806.28;;;-7.07;52.01
61113;BME280;47184;57.998;56.184;2023-03-03T17:20:49;98800.06;;;-7.03;51.70
61113;BME280;47184;57.998;56.184;2023-03-03T17:28:43;98804.69;;;-6.61;50.90
61113;BME280;47184;57.998;56.184;2023-03-03T17:31:29;98803.25;;;-6.51;51.17
61113;BME280;47184;57.998;56.184;2023-03-03T17:37:02;98776.44;;;-6.61;50.88
61113;BME280;47184;57.998;56.184;2023-03-03T17:45:23;98805.38;;;-6.90;51.45
61113;BME280;47184;57.998;56.184;2023-03-03T17:53:23;98803.78;;;-7.09;52.64